Midland, Missouri
Current Conditions -  °F | °C
As of 7:55 AM on Thursday 18 Dec 2014 (Local Time) from KIRK Reporting Station
Light Snow Light Snow  
Wind Chill: -8°   Ceiling: 2100
Heat Index: -4°   Visibility: 0.75mi
Dew Point: -4°   Wind: 6mph
Humidity: 96%   Direction: 90°E
Pressure: 30.28"   Gusts: NA
Location:  40.2969°N, 92.7524°W
Report Text: KIRK 181355Z AUTO 09005KT 3/4SM -SN BR OVC021 M04/M04 A3028 RMK AO2 SLP269 P0001 T10391044
Loading
Personal Weather Stations






























Interactive Weather Map New forecast layout! Learn more

10-Day Weather Forecast

Advertisements
Track Severe Weather on mobile